KCSQ Airport (Creston Muni) Information

FAA: CSQ - ICAO: KCSQ

KCSQ Airport Location

State Iowa
County Union
City Creston
KCSQ Airport is 3 miles south of Creston, IA.
Latitude 41-01-17.2000N
Longitude 094-21-47.9000W
Elevation 1,299ft

KCSQ Airport METARs

METAR KCSQ 302135Z AUTO 15011G17KT 10SM CLR 22/06 A3009 RMK AO2
Altimeter 30.09"
Temperature 22.0°C (71.6°F)
Wind 150° at 11KT with gusts to 17KT
Clouds Skies are clear.
Visibility 10.0mi
Time observed: 2022-09-30T21:35:00Z

KCSQ Airport Details

Status Operational
Activation December 1958
Ownership Public
Usage Public
Chart OMAHA
ATC on-site No
Beacon schedule sunset-sunrise
Beacon color clear green

KCSQ Airport Contacts

Owner CITY OF CRESTON
Owner address 116 W. ADAMS, CRESTON, IA 50801
Owner phone 641-782-2000
Manager ROYCE STANGL
Manager address 26321 HWY 141, COON RAPIDS, IA 50058
Manager phone 712-683-5752

KCSQ Airport (Creston Muni) Radio Frequencies

KCSQ (Airport) Radio Frequencies

UNICOM 122.8
Common traffic advisory frequency (CTAF) 122.8